createdAt,value
2022-08-03T00:00:36.613Z,22.58
2022-08-03T00:03:06.504Z,22.54
2022-08-03T00:05:34.752Z,22.53
2022-08-03T00:08:02.883Z,22.53
2022-08-03T00:10:32.498Z,22.55
2022-08-03T00:13:00.763Z,22.54
2022-08-03T00:15:28.937Z,22.50
2022-08-03T00:17:57.034Z,22.43
2022-08-03T00:20:29.123Z,22.37
2022-08-03T00:22:57.064Z,22.32
2022-08-03T00:25:25.630Z,22.30
2022-08-03T00:27:53.605Z,22.24
2022-08-03T00:30:22.028Z,22.15
2022-08-03T00:32:54.765Z,22.16
2022-08-03T00:35:36.621Z,22.12
2022-08-03T00:38:06.753Z,22.10
2022-08-03T00:40:35.096Z,22.07
2022-08-03T00:43:08.987Z,22.06
2022-08-03T00:45:38.497Z,22.04
2022-08-03T00:48:31.059Z,22.02
2022-08-03T00:50:56.230Z,21.93
2022-08-03T00:53:28.392Z,21.92
2022-08-03T00:56:00.387Z,21.83
2022-08-03T00:58:28.523Z,21.80
2022-08-03T01:00:56.772Z,21.72
2022-08-03T01:03:24.910Z,21.70
2022-08-03T01:05:57.514Z,21.71
2022-08-03T01:08:32.170Z,21.69
2022-08-03T01:11:06.755Z,21.61
2022-08-03T01:14:02.399Z,21.57
2022-08-03T01:16:36.881Z,21.53
2022-08-03T01:19:31.757Z,21.51
2022-08-03T01:22:12.524Z,21.46
2022-08-03T01:24:49.683Z,21.49
2022-08-03T01:27:20.986Z,21.50
2022-08-03T01:30:00.455Z,21.56
2022-08-03T01:32:59.599Z,21.53
2022-08-03T01:35:29.580Z,21.54
2022-08-03T01:37:59.987Z,21.47
2022-08-03T01:40:29.981Z,21.41
2022-08-03T01:43:08.783Z,21.40
2022-08-03T01:45:44.591Z,21.40
2022-08-03T01:48:13.756Z,21.41
2022-08-03T01:50:41.928Z,21.43
2022-08-03T01:53:11.123Z,21.46
2022-08-03T01:55:39.932Z,21.45
2022-08-03T01:58:08.910Z,21.44
2022-08-03T02:00:39.096Z,21.38
2022-08-03T02:03:07.901Z,21.36
2022-08-03T02:05:36.431Z,21.31
2022-08-03T02:08:07.060Z,21.26
2022-08-03T02:10:36.971Z,21.23
2022-08-03T02:13:07.250Z,21.17
2022-08-03T02:15:35.948Z,20.97
2022-08-03T02:18:07.966Z,20.92
2022-08-03T02:20:36.561Z,20.91
2022-08-03T02:23:06.655Z,20.87
2022-08-03T02:25:36.856Z,20.88
2022-08-03T02:28:12.262Z,20.87
2022-08-03T02:30:42.301Z,20.95
2022-08-03T02:33:23.679Z,20.86
2022-08-03T02:35:52.846Z,20.86
2022-08-03T02:38:23.410Z,20.84
2022-08-03T02:40:54.503Z,20.86
2022-08-03T02:43:25.786Z,20.84
2022-08-03T02:45:55.736Z,20.78
2022-08-03T02:48:28.666Z,20.74
2022-08-03T02:51:00.113Z,20.70
2022-08-03T02:53:29.027Z,20.69
2022-08-03T02:56:01.586Z,20.74
2022-08-03T02:58:30.617Z,20.71
2022-08-03T03:00:58.990Z,20.69
2022-08-03T03:03:29.807Z,20.73
2022-08-03T03:06:02.446Z,20.73
2022-08-03T03:08:34.070Z,20.73
2022-08-03T03:11:03.062Z,20.77
2022-08-03T03:13:44.118Z,20.81
2022-08-03T03:16:14.307Z,20.74
2022-08-03T03:18:45.201Z,20.74
2022-08-03T03:21:14.497Z,20.59
2022-08-03T03:23:42.986Z,20.43
2022-08-03T03:26:11.126Z,20.34
2022-08-03T03:28:39.261Z,20.30
2022-08-03T03:31:07.813Z,20.30
2022-08-03T03:33:36.907Z,20.26
2022-08-03T03:36:07.126Z,20.32
2022-08-03T03:38:35.461Z,20.41
2022-08-03T03:41:03.785Z,20.43
2022-08-03T03:43:31.891Z,20.41
2022-08-03T03:46:00.077Z,20.41
2022-08-03T03:48:28.259Z,20.33
2022-08-03T03:50:57.357Z,20.43
2022-08-03T03:53:27.434Z,20.44
2022-08-03T03:55:57.847Z,20.40
2022-08-03T03:58:30.242Z,20.38
2022-08-03T04:00:59.189Z,20.27
2022-08-03T04:03:27.248Z,20.21
2022-08-03T04:06:12.665Z,20.15
2022-08-03T04:08:59.684Z,20.14
2022-08-03T04:11:31.539Z,20.05
2022-08-03T04:14:02.290Z,19.96
2022-08-03T04:16:33.892Z,19.90
2022-08-03T04:19:04.761Z,19.98
2022-08-03T04:21:33.615Z,20.01
2022-08-03T04:24:05.363Z,20.11
2022-08-03T04:26:36.286Z,20.12
2022-08-03T04:29:05.694Z,20.12
2022-08-03T04:31:33.826Z,20.16
2022-08-03T04:34:02.074Z,20.20
2022-08-03T04:36:34.282Z,20.27
2022-08-03T04:39:06.160Z,20.23
2022-08-03T04:42:04.721Z,20.21
2022-08-03T04:44:28.469Z,20.22
2022-08-03T04:46:57.810Z,20.20
2022-08-03T04:49:26.827Z,20.22
2022-08-03T04:51:55.514Z,20.18
2022-08-03T04:54:25.020Z,20.17
2022-08-03T04:56:53.025Z,20.18
2022-08-03T04:59:21.232Z,20.16
2022-08-03T05:01:49.478Z,20.17
2022-08-03T05:04:17.479Z,20.20
2022-08-03T05:06:48.159Z,20.22
2022-08-03T05:09:33.491Z,20.24
2022-08-03T05:12:09.853Z,20.24
2022-08-03T05:14:39.065Z,20.28
2022-08-03T05:17:07.278Z,20.33
2022-08-03T05:19:36.738Z,20.37
2022-08-03T05:22:05.006Z,20.43
2022-08-03T05:24:33.091Z,20.45
2022-08-03T05:27:01.203Z,20.50
2022-08-03T05:29:30.814Z,20.54
2022-08-03T05:31:58.985Z,20.56
2022-08-03T05:34:27.276Z,20.59
2022-08-03T05:36:55.509Z,20.62
2022-08-03T05:39:24.392Z,20.65
2022-08-03T05:41:52.410Z,20.70
2022-08-03T05:44:20.626Z,20.72
2022-08-03T05:46:50.154Z,20.75
2022-08-03T05:49:18.363Z,20.81
2022-08-03T05:51:46.682Z,20.83
2022-08-03T05:54:55.531Z,20.88
2022-08-03T05:57:16.505Z,20.91
2022-08-03T05:59:53.688Z,20.97
2022-08-03T06:02:27.335Z,21.05
2022-08-03T06:04:55.542Z,21.12
2022-08-03T06:07:23.889Z,21.25
2022-08-03T06:10:35.244Z,21.31
2022-08-03T06:12:41.459Z,21.42
2022-08-03T06:15:11.435Z,21.52
2022-08-03T06:17:49.246Z,21.61
2022-08-03T06:20:19.396Z,21.71
2022-08-03T06:22:51.296Z,21.80
2022-08-03T06:25:29.304Z,21.88
2022-08-03T06:28:00.267Z,22.01
2022-08-03T06:30:32.310Z,22.08
2022-08-03T06:33:02.286Z,22.17
2022-08-03T06:35:30.528Z,22.29
2022-08-03T06:37:58.690Z,22.38
2022-08-03T06:40:31.220Z,22.49
2022-08-03T06:43:00.070Z,22.60
2022-08-03T06:45:31.715Z,22.71
2022-08-03T06:48:07.579Z,22.82
2022-08-03T06:50:36.888Z,22.90
2022-08-03T06:53:05.885Z,23.00
2022-08-03T06:55:34.179Z,23.11
2022-08-03T06:58:10.531Z,23.18
2022-08-03T07:00:38.878Z,23.30
2022-08-03T07:03:08.257Z,23.43
2022-08-03T07:05:36.290Z,23.50
2022-08-03T07:08:04.521Z,23.60
2022-08-03T07:10:32.579Z,23.75
2022-08-03T07:13:00.636Z,23.87
2022-08-03T07:15:54.599Z,24.03
2022-08-03T07:18:17.895Z,24.20
2022-08-03T07:20:57.689Z,24.41
2022-08-03T07:23:25.803Z,24.65
2022-08-03T07:25:53.926Z,24.87
2022-08-03T07:28:22.247Z,25.10
2022-08-03T07:30:50.477Z,25.31
2022-08-03T07:33:19.835Z,25.58
2022-08-03T07:35:47.905Z,25.84
2022-08-03T07:38:16.334Z,26.08
2022-08-03T07:40:46.262Z,26.33
2022-08-03T07:43:14.615Z,26.58
2022-08-03T07:45:42.501Z,26.78
2022-08-03T07:48:12.593Z,27.06
2022-08-03T07:50:42.065Z,27.27
2022-08-03T07:53:10.287Z,27.48
2022-08-03T07:55:38.487Z,27.69
2022-08-03T07:58:09.417Z,27.89
2022-08-03T08:00:37.413Z,28.12
2022-08-03T08:03:06.356Z,28.34
2022-08-03T08:05:37.757Z,28.45
2022-08-03T08:08:08.499Z,28.68
2022-08-03T08:10:36.946Z,28.81
2022-08-03T08:13:05.687Z,28.99
2022-08-03T08:15:34.176Z,29.16
2022-08-03T08:18:03.551Z,29.36
2022-08-03T08:20:34.903Z,29.56
2022-08-03T08:23:09.557Z,29.63
2022-08-03T08:25:57.252Z,29.78
2022-08-03T08:28:31.145Z,29.82
2022-08-03T08:31:02.646Z,29.94
2022-08-03T08:33:48.337Z,30.10
2022-08-03T08:36:19.161Z,30.19
2022-08-03T08:38:48.417Z,30.40
2022-08-03T08:41:16.980Z,30.49
2022-08-03T08:43:45.024Z,30.58
2022-08-03T08:46:23.434Z,30.62
2022-08-03T08:48:52.970Z,30.79
2022-08-03T08:51:22.906Z,30.95
2022-08-03T08:53:54.149Z,31.04
2022-08-03T08:56:25.559Z,31.20
2022-08-03T08:58:57.309Z,31.26
2022-08-03T09:01:25.364Z,31.37
2022-08-03T09:03:54.474Z,31.48
2022-08-03T09:06:22.552Z,31.54
2022-08-03T09:08:50.468Z,31.67
2022-08-03T09:11:55.707Z,31.86
2022-08-03T09:14:39.341Z,31.84
2022-08-03T09:17:03.083Z,31.95
2022-08-03T09:19:32.163Z,32.02
2022-08-03T09:22:18.620Z,32.06
2022-08-03T09:25:21.541Z,32.03
2022-08-03T09:27:47.352Z,32.20
2022-08-03T09:30:33.099Z,32.25
2022-08-03T09:33:04.212Z,32.44
2022-08-03T09:35:53.209Z,32.43
2022-08-03T09:38:24.038Z,32.33
2022-08-03T09:40:54.842Z,32.44
2022-08-03T09:43:28.514Z,32.58
2022-08-03T09:46:04.160Z,32.72
2022-08-03T09:48:35.019Z,32.82
2022-08-03T09:51:13.516Z,32.93
2022-08-03T09:53:59.255Z,32.78
2022-08-03T09:56:40.511Z,32.90
2022-08-03T09:59:10.360Z,32.88
2022-08-03T10:01:39.697Z,33.04
2022-08-03T10:04:07.610Z,33.02
2022-08-03T10:06:35.532Z,33.03
2022-08-03T10:09:09.268Z,33.28
2022-08-03T10:11:41.826Z,33.17
2022-08-03T10:14:18.945Z,33.24
2022-08-03T10:16:48.044Z,33.35
2022-08-03T10:19:18.188Z,33.33
2022-08-03T10:21:51.122Z,33.29
2022-08-03T10:24:26.298Z,33.48
2022-08-03T10:26:55.257Z,33.51
2022-08-03T10:29:26.159Z,33.53
2022-08-03T10:31:58.196Z,33.63
2022-08-03T10:34:28.838Z,33.77
2022-08-03T10:36:59.145Z,33.89
2022-08-03T10:39:39.098Z,33.92
2022-08-03T10:42:10.680Z,33.64
2022-08-03T10:44:44.046Z,33.78
2022-08-03T10:47:12.806Z,33.97
2022-08-03T10:49:40.896Z,33.64
2022-08-03T10:52:31.723Z,33.69
2022-08-03T10:55:16.216Z,33.69
2022-08-03T10:57:45.862Z,33.75
2022-08-03T11:00:18.996Z,34.03
2022-08-03T11:03:19.190Z,34.20
2022-08-03T11:05:49.167Z,34.40
2022-08-03T11:08:29.088Z,34.49
2022-08-03T11:11:02.271Z,34.46
2022-08-03T11:13:34.005Z,34.73
2022-08-03T11:16:07.230Z,34.84
2022-08-03T11:18:37.594Z,34.69
2022-08-03T11:21:08.639Z,34.59
2022-08-03T11:24:05.649Z,34.52
2022-08-03T11:26:35.151Z,34.74
2022-08-03T11:29:30.393Z,34.84
2022-08-03T11:31:59.837Z,34.95
2022-08-03T11:34:27.731Z,35.01
2022-08-03T11:37:22.444Z,35.14
2022-08-03T11:39:55.545Z,34.99
2022-08-03T11:42:57.385Z,34.97
2022-08-03T11:45:25.225Z,35.03
2022-08-03T11:47:55.819Z,34.96
2022-08-03T11:50:24.471Z,35.28
2022-08-03T11:52:52.766Z,35.47
2022-08-03T11:55:22.148Z,35.58
2022-08-03T11:59:03.415Z,35.69
2022-08-03T12:00:40.908Z,35.75
2022-08-03T12:03:12.354Z,35.69
2022-08-03T12:05:51.054Z,35.51
2022-08-03T12:08:30.349Z,35.60
2022-08-03T12:11:00.320Z,35.64
2022-08-03T12:14:35.763Z,35.58
2022-08-03T12:16:19.644Z,35.65
2022-08-03T12:18:56.531Z,35.81
2022-08-03T12:21:25.238Z,35.91
2022-08-03T12:23:59.066Z,35.98
2022-08-03T12:26:27.483Z,36.07
2022-08-03T12:28:55.544Z,36.15
2022-08-03T12:31:23.672Z,36.20
2022-08-03T12:34:01.912Z,35.98
2022-08-03T12:36:30.851Z,35.52
2022-08-03T12:39:01.244Z,35.20
2022-08-03T12:41:31.279Z,35.31
2022-08-03T12:43:59.614Z,35.59
2022-08-03T12:46:33.074Z,35.66
2022-08-03T12:49:10.996Z,35.63
2022-08-03T12:51:43.233Z,35.62
2022-08-03T12:54:11.891Z,35.21
2022-08-03T12:57:00.852Z,35.21
2022-08-03T12:59:34.792Z,35.51
2022-08-03T13:02:04.596Z,35.71
2022-08-03T13:04:39.102Z,35.81
2022-08-03T13:07:14.268Z,36.09
2022-08-03T13:09:44.001Z,35.90
2022-08-03T13:12:13.425Z,35.60
2022-08-03T13:14:41.321Z,35.77
2022-08-03T13:17:09.430Z,35.82
2022-08-03T13:19:39.161Z,35.92
2022-08-03T13:22:14.475Z,36.05
2022-08-03T13:24:43.561Z,35.79
2022-08-03T13:28:02.516Z,36.06
2022-08-03T13:30:00.320Z,36.15
2022-08-03T13:32:30.912Z,36.25
2022-08-03T13:35:02.871Z,36.42
2022-08-03T13:37:32.215Z,36.40
2022-08-03T13:40:02.746Z,35.97
2022-08-03T13:42:32.072Z,35.80
2022-08-03T13:45:00.638Z,35.78
2022-08-03T13:47:28.686Z,35.69
2022-08-03T13:49:59.758Z,35.61
2022-08-03T13:52:30.131Z,35.46
2022-08-03T13:54:59.234Z,35.61
2022-08-03T13:58:03.617Z,35.82
2022-08-03T14:00:27.967Z,35.84
2022-08-03T14:03:03.845Z,35.92
2022-08-03T14:05:33.958Z,35.85
2022-08-03T14:08:05.713Z,36.06
2022-08-03T14:10:37.993Z,36.12
2022-08-03T14:13:06.419Z,36.22
2022-08-03T14:15:37.726Z,36.16
2022-08-03T14:18:06.771Z,36.21
2022-08-03T14:20:37.959Z,36.21
2022-08-03T14:23:08.817Z,36.21
2022-08-03T14:25:43.210Z,36.26
2022-08-03T14:28:13.248Z,36.41
2022-08-03T14:30:41.269Z,36.20
2022-08-03T14:33:09.189Z,36.24
2022-08-03T14:35:37.032Z,36.36
2022-08-03T14:38:04.939Z,36.41
2022-08-03T14:40:34.746Z,36.47
2022-08-03T14:43:03.949Z,36.42
2022-08-03T14:45:31.938Z,36.39
2022-08-03T14:50:10.424Z,36.40
2022-08-03T14:50:51.911Z,36.43
2022-08-03T14:53:20.617Z,36.46
2022-08-03T14:55:51.966Z,36.42
2022-08-03T14:58:21.420Z,36.41
2022-08-03T15:00:50.709Z,36.34
2022-08-03T15:03:20.570Z,36.19
2022-08-03T15:05:48.728Z,36.15
2022-08-03T15:08:16.858Z,36.20
2022-08-03T15:10:45.577Z,36.09
2022-08-03T15:13:16.484Z,36.06
2022-08-03T15:15:44.583Z,35.91
2022-08-03T15:18:12.630Z,35.96
2022-08-03T15:20:45.920Z,36.00
2022-08-03T15:23:16.028Z,35.94
2022-08-03T15:26:28.200Z,35.80
2022-08-03T15:28:34.354Z,35.83
2022-08-03T15:31:05.667Z,35.66
2022-08-03T15:33:33.731Z,35.65
2022-08-03T15:36:03.666Z,35.66
2022-08-03T15:38:31.921Z,35.72
2022-08-03T15:41:00.220Z,35.55
2022-08-03T15:43:28.370Z,35.45
2022-08-03T15:46:26.895Z,35.37
2022-08-03T15:48:46.986Z,35.38
2022-08-03T15:51:15.143Z,35.33
2022-08-03T15:53:43.465Z,35.35
2022-08-03T15:56:16.837Z,35.29
2022-08-03T15:59:09.201Z,35.36
2022-08-03T16:01:36.520Z,35.21
2022-08-03T16:04:04.772Z,35.17
2022-08-03T16:06:35.174Z,35.20
2022-08-03T16:09:23.018Z,35.08
2022-08-03T16:11:54.043Z,34.97
2022-08-03T16:14:32.256Z,34.97
2022-08-03T16:17:05.804Z,34.92
2022-08-03T16:19:33.809Z,34.85
2022-08-03T16:22:03.619Z,34.82
2022-08-03T16:24:32.049Z,34.89
2022-08-03T16:27:00.761Z,34.70
2022-08-03T16:29:29.571Z,34.54
2022-08-03T16:31:57.721Z,34.43
2022-08-03T16:34:27.133Z,34.37
2022-08-03T16:36:55.830Z,34.34
2022-08-03T16:39:23.870Z,34.27
2022-08-03T16:41:53.909Z,34.22
2022-08-03T16:44:30.608Z,34.20
2022-08-03T16:46:58.882Z,34.16
2022-08-03T16:49:54.965Z,34.11
2022-08-03T16:52:18.101Z,34.07
2022-08-03T16:54:52.663Z,34.06
2022-08-03T16:57:55.680Z,34.03
2022-08-03T17:00:12.230Z,34.02
2022-08-03T17:03:04.190Z,34.03
2022-08-03T17:05:47.107Z,33.97
2022-08-03T17:08:16.291Z,33.91
2022-08-03T17:10:47.590Z,33.85
2022-08-03T17:13:22.662Z,33.86
2022-08-03T17:16:00.727Z,33.83
2022-08-03T17:18:32.593Z,33.78
2022-08-03T17:21:03.483Z,33.75
2022-08-03T17:23:47.821Z,33.67
2022-08-03T17:26:21.583Z,33.58
2022-08-03T17:28:57.391Z,33.60
2022-08-03T17:31:31.420Z,33.51
2022-08-03T17:34:02.071Z,33.50
2022-08-03T17:37:02.711Z,33.47
2022-08-03T17:39:48.506Z,33.46
2022-08-03T17:42:29.142Z,33.37
2022-08-03T17:45:02.108Z,33.37
2022-08-03T17:47:42.180Z,33.26
2022-08-03T17:50:25.275Z,33.21
2022-08-03T17:53:07.592Z,33.15
2022-08-03T17:55:55.170Z,33.13
2022-08-03T17:58:38.304Z,33.03
2022-08-03T18:02:00.018Z,33.03
2022-08-03T18:04:15.626Z,32.91
2022-08-03T18:06:55.872Z,32.84
2022-08-03T18:10:04.349Z,32.76
2022-08-03T18:12:23.768Z,32.67
2022-08-03T18:15:01.064Z,32.58
2022-08-03T18:17:55.538Z,32.55
2022-08-03T18:20:31.296Z,32.48
2022-08-03T18:23:04.652Z,32.41
2022-08-03T18:25:45.645Z,32.33
2022-08-03T18:28:23.330Z,32.25
2022-08-03T18:30:53.665Z,32.20
2022-08-03T18:34:19.922Z,32.09
2022-08-03T18:36:31.110Z,31.98
2022-08-03T18:39:02.587Z,31.87
2022-08-03T18:41:34.748Z,31.77
2022-08-03T18:44:06.453Z,31.64
2022-08-03T18:46:42.828Z,31.54
2022-08-03T18:49:14.176Z,31.45
2022-08-03T18:51:46.525Z,31.31
2022-08-03T18:54:59.071Z,31.22
2022-08-03T18:57:14.588Z,31.06
2022-08-03T18:59:47.676Z,30.92
2022-08-03T19:02:26.615Z,30.81
2022-08-03T19:04:56.050Z,30.70
2022-08-03T19:07:28.791Z,30.61
2022-08-03T19:10:07.418Z,30.50
2022-08-03T19:12:44.642Z,30.39
2022-08-03T19:15:15.801Z,30.30
2022-08-03T19:17:52.556Z,30.23
2022-08-03T19:20:21.951Z,30.18
2022-08-03T19:22:52.101Z,30.12
2022-08-03T19:25:34.280Z,30.04
2022-08-03T19:28:06.527Z,29.84
2022-08-03T19:30:39.884Z,29.66
2022-08-03T19:33:09.644Z,29.47
2022-08-03T19:35:51.611Z,29.30
2022-08-03T19:38:28.223Z,29.11
2022-08-03T19:40:59.619Z,28.97
2022-08-03T19:43:52.959Z,28.87
2022-08-03T19:46:23.126Z,28.77
2022-08-03T19:49:02.335Z,28.70
2022-08-03T19:52:01.163Z,28.55
2022-08-03T19:54:29.706Z,28.42
2022-08-03T19:57:01.923Z,28.27
2022-08-03T19:59:36.769Z,28.11
2022-08-03T20:02:17.545Z,28.01
2022-08-03T20:04:56.069Z,27.87
2022-08-03T20:07:24.029Z,27.70
2022-08-03T20:09:54.574Z,27.54
2022-08-03T20:12:27.338Z,27.49
2022-08-03T20:15:02.070Z,27.44
2022-08-03T20:17:56.290Z,27.45
2022-08-03T20:20:21.101Z,27.41
2022-08-03T20:22:54.733Z,27.42
2022-08-03T20:25:38.264Z,27.45
2022-08-03T20:28:13.628Z,27.43
2022-08-03T20:30:47.467Z,27.38
2022-08-03T20:33:48.827Z,27.34
2022-08-03T20:36:18.647Z,27.32
2022-08-03T20:38:48.480Z,27.36
2022-08-03T20:41:18.009Z,27.39
2022-08-03T20:43:49.247Z,27.44
2022-08-03T20:46:29.251Z,27.44
2022-08-03T20:49:05.072Z,27.39
2022-08-03T20:51:49.666Z,27.37
2022-08-03T20:54:29.222Z,27.37
2022-08-03T20:56:59.074Z,27.32
2022-08-03T20:59:38.560Z,27.26
2022-08-03T21:02:30.173Z,27.26
2022-08-03T21:05:03.433Z,27.23
2022-08-03T21:08:04.113Z,27.18
2022-08-03T21:10:37.960Z,27.15
2022-08-03T21:13:16.899Z,27.17
2022-08-03T21:16:11.484Z,27.14
2022-08-03T21:18:44.358Z,27.11
2022-08-03T21:21:15.224Z,27.04
2022-08-03T21:23:48.583Z,27.02
2022-08-03T21:26:18.374Z,26.93
2022-08-03T21:28:47.314Z,26.91
2022-08-03T21:31:24.451Z,26.86
2022-08-03T21:33:57.834Z,26.83
2022-08-03T21:36:27.586Z,26.80
2022-08-03T21:38:57.255Z,26.80
2022-08-03T21:41:26.514Z,26.77
2022-08-03T21:43:54.463Z,26.75
2022-08-03T21:46:23.014Z,26.74
2022-08-03T21:50:05.758Z,26.76
2022-08-03T21:51:46.842Z,26.74
2022-08-03T21:54:14.975Z,26.69
2022-08-03T21:56:44.532Z,26.69
2022-08-03T21:59:17.868Z,26.66
2022-08-03T22:01:47.604Z,26.61
2022-08-03T22:04:50.204Z,26.60
2022-08-03T22:07:09.365Z,26.56
2022-08-03T22:09:37.757Z,26.44
2022-08-03T22:12:09.215Z,26.44
2022-08-03T22:14:37.518Z,26.45
2022-08-03T22:17:07.476Z,26.45
2022-08-03T22:19:37.448Z,26.42
2022-08-03T22:22:07.675Z,26.42
2022-08-03T22:24:37.235Z,26.41
2022-08-03T22:27:23.712Z,26.37
2022-08-03T22:29:53.648Z,26.33
2022-08-03T22:32:21.940Z,26.25
2022-08-03T22:34:51.378Z,26.22
2022-08-03T22:37:22.078Z,26.15
2022-08-03T22:39:51.023Z,26.12
2022-08-03T22:42:20.584Z,26.10
2022-08-03T22:44:50.960Z,26.07
2022-08-03T22:47:22.532Z,26.08
2022-08-03T22:50:31.625Z,26.10
2022-08-03T22:52:45.394Z,26.08
2022-08-03T22:55:24.513Z,26.08
2022-08-03T22:57:56.310Z,26.06
2022-08-03T23:00:26.441Z,25.99
2022-08-03T23:02:55.582Z,25.93
2022-08-03T23:06:00.477Z,25.88
2022-08-03T23:08:16.852Z,25.83
2022-08-03T23:10:47.192Z,25.81
2022-08-03T23:13:16.113Z,25.76
2022-08-03T23:15:45.246Z,25.76
2022-08-03T23:18:13.541Z,25.77
2022-08-03T23:20:44.745Z,25.75
2022-08-03T23:23:13.745Z,25.70
2022-08-03T23:25:41.985Z,25.66
2022-08-03T23:28:10.505Z,25.64
2022-08-03T23:30:39.015Z,25.62
2022-08-03T23:33:07.504Z,25.59
2022-08-03T23:36:28.256Z,25.53
2022-08-03T23:38:42.931Z,25.46
2022-08-03T23:41:11.652Z,25.40
2022-08-03T23:43:51.462Z,25.39
2022-08-03T23:46:22.027Z,25.28
2022-08-03T23:48:50.192Z,25.18
2022-08-03T23:51:23.698Z,25.17
2022-08-03T23:54:00.101Z,25.14
2022-08-03T23:56:34.121Z,25.10
2022-08-03T23:59:08.392Z,25.10
